createdAt,value
2022-12-23T00:00:30.453Z,4.45
2022-12-23T00:01:30.521Z,4.45
2022-12-23T00:02:30.694Z,4.45
2022-12-23T00:03:30.740Z,4.45
2022-12-23T00:04:30.609Z,4.45
2022-12-23T00:05:37.375Z,4.49
2022-12-23T00:06:30.687Z,4.5
2022-12-23T00:07:30.725Z,4.49
2022-12-23T00:08:30.793Z,4.48
2022-12-23T00:09:30.792Z,4.47
2022-12-23T00:10:30.820Z,4.46
2022-12-23T00:11:30.853Z,4.46
2022-12-23T00:12:30.887Z,4.51
2022-12-23T00:13:30.995Z,4.54
2022-12-23T00:14:30.981Z,4.53
2022-12-23T00:15:31.003Z,4.54
2022-12-23T00:16:31.095Z,4.55
2022-12-23T00:17:31.090Z,4.55
2022-12-23T00:18:31.130Z,4.56
2022-12-23T00:19:31.156Z,4.55
2022-12-23T00:20:31.186Z,4.55
2022-12-23T00:21:31.218Z,4.55
2022-12-23T00:22:31.258Z,4.59
2022-12-23T00:23:31.294Z,4.55
2022-12-23T00:24:31.350Z,4.61
2022-12-23T00:25:31.369Z,4.63
2022-12-23T00:26:31.395Z,4.62
2022-12-23T00:27:37.200Z,4.62
2022-12-23T00:28:31.459Z,4.62
2022-12-23T00:29:31.548Z,4.61
2022-12-23T00:30:31.528Z,4.59
2022-12-23T00:31:31.598Z,4.58
2022-12-23T00:32:31.598Z,4.56
2022-12-23T00:33:31.626Z,4.54
2022-12-23T00:34:31.681Z,4.53
2022-12-23T00:35:31.703Z,4.54
2022-12-23T00:36:31.928Z,4.53
2022-12-23T00:37:31.772Z,4.53
2022-12-23T00:38:31.797Z,4.53
2022-12-23T00:39:31.859Z,4.54
2022-12-23T00:40:31.881Z,4.61
2022-12-23T00:41:31.923Z,4.62
2022-12-23T00:42:31.931Z,4.62
2022-12-23T00:43:31.964Z,4.64
2022-12-23T00:44:32.017Z,4.64
2022-12-23T00:45:32.060Z,4.65
2022-12-23T00:46:32.203Z,4.64
2022-12-23T00:47:32.133Z,4.63
2022-12-23T00:48:32.134Z,4.64
2022-12-23T00:49:32.165Z,4.65
2022-12-23T00:50:32.206Z,4.65
2022-12-23T00:51:32.229Z,4.65
2022-12-23T00:52:32.310Z,4.67
2022-12-23T00:53:32.300Z,4.66
2022-12-23T00:54:32.333Z,4.65
2022-12-23T00:55:32.366Z,4.65
2022-12-23T00:56:32.405Z,4.64
2022-12-23T00:57:32.491Z,4.64
2022-12-23T00:58:32.506Z,4.64
2022-12-23T00:59:32.495Z,4.63
2022-12-23T01:00:32.530Z,4.63
2022-12-23T01:01:32.712Z,4.63
2022-12-23T01:02:32.789Z,4.62
2022-12-23T01:03:32.659Z,4.63
2022-12-23T01:04:32.654Z,4.63
2022-12-23T01:05:32.709Z,4.62
2022-12-23T01:06:32.733Z,4.61
2022-12-23T01:07:32.762Z,4.6
2022-12-23T01:08:32.798Z,4.58
2022-12-23T01:09:32.820Z,4.58
2022-12-23T01:10:32.855Z,4.55
2022-12-23T01:11:32.925Z,4.55
2022-12-23T01:12:32.924Z,4.54
2022-12-23T01:13:32.993Z,4.54
2022-12-23T01:14:33.044Z,4.55
2022-12-23T01:15:33.031Z,4.55
2022-12-23T01:16:33.108Z,4.55
2022-12-23T01:17:33.089Z,4.54
2022-12-23T01:18:33.139Z,4.54
2022-12-23T01:19:33.163Z,4.54
2022-12-23T01:20:33.181Z,4.54
2022-12-23T01:21:33.372Z,4.55
2022-12-23T01:22:33.262Z,4.55
2022-12-23T01:23:33.302Z,4.56
2022-12-23T01:24:33.361Z,4.57
2022-12-23T01:25:33.370Z,4.57
2022-12-23T01:26:33.407Z,4.56
2022-12-23T01:27:33.470Z,4.55
2022-12-23T01:28:33.471Z,4.54
2022-12-23T01:29:33.513Z,4.53
2022-12-23T01:30:33.544Z,4.53
2022-12-23T01:31:33.640Z,4.52
2022-12-23T01:32:33.613Z,4.53
2022-12-23T01:33:33.672Z,4.53
2022-12-23T01:34:37.011Z,4.52
2022-12-23T01:35:33.710Z,4.52
2022-12-23T01:36:33.761Z,4.5
2022-12-23T01:37:33.815Z,4.5
2022-12-23T01:38:33.817Z,4.5
2022-12-23T01:39:33.867Z,4.49
2022-12-23T01:40:33.881Z,4.5
2022-12-23T01:41:33.914Z,4.5
2022-12-23T01:42:33.948Z,4.5
2022-12-23T01:43:33.995Z,4.5
2022-12-23T01:44:34.029Z,4.5
2022-12-23T01:45:34.079Z,4.5
2022-12-23T01:46:34.110Z,4.51
2022-12-23T01:47:34.306Z,4.51
2022-12-23T01:48:34.161Z,4.53
2022-12-23T01:49:34.199Z,4.53
2022-12-23T01:50:34.228Z,4.54
2022-12-23T01:51:34.253Z,4.54
2022-12-23T01:52:34.287Z,4.54
2022-12-23T01:53:34.318Z,4.54
2022-12-23T01:54:34.359Z,4.54
2022-12-23T01:55:34.388Z,4.54
2022-12-23T01:56:34.419Z,4.55
2022-12-23T01:57:34.471Z,4.56
2022-12-23T01:58:34.536Z,4.55
2022-12-23T01:59:34.530Z,4.55
2022-12-23T02:00:34.570Z,4.55
2022-12-23T02:01:34.778Z,4.56
2022-12-23T02:02:34.721Z,4.57
2022-12-23T02:03:34.801Z,4.57
2022-12-23T02:04:34.706Z,4.57
2022-12-23T02:05:34.747Z,4.58
2022-12-23T02:06:34.796Z,4.57
2022-12-23T02:07:34.822Z,4.62
2022-12-23T02:08:34.860Z,4.62
2022-12-23T02:09:34.879Z,4.62
2022-12-23T02:10:34.927Z,4.62
2022-12-23T02:11:34.951Z,4.65
2022-12-23T02:12:35.000Z,4.63
2022-12-23T02:13:35.033Z,4.64
2022-12-23T02:14:35.059Z,4.65
2022-12-23T02:15:35.108Z,4.65
2022-12-23T02:16:35.145Z,4.66
2022-12-23T02:17:35.202Z,4.67
2022-12-23T02:18:35.202Z,4.67
2022-12-23T02:19:35.241Z,4.68
2022-12-23T02:20:35.276Z,4.68
2022-12-23T02:21:35.314Z,4.69
2022-12-23T02:22:35.358Z,4.69
2022-12-23T02:23:35.374Z,4.71
2022-12-23T02:24:35.428Z,4.7
2022-12-23T02:25:35.469Z,4.7
2022-12-23T02:26:35.540Z,4.7
2022-12-23T02:27:35.554Z,4.71
2022-12-23T02:28:35.562Z,4.71
2022-12-23T02:29:35.626Z,4.72
2022-12-23T02:30:35.696Z,4.74
2022-12-23T02:31:35.655Z,4.72
2022-12-23T02:32:35.696Z,4.74
2022-12-23T02:33:35.722Z,4.78
2022-12-23T02:34:35.765Z,4.77
2022-12-23T02:35:35.794Z,4.76
2022-12-23T02:36:35.867Z,4.77
2022-12-23T02:37:35.898Z,4.78
2022-12-23T02:38:35.891Z,4.77
2022-12-23T02:39:35.916Z,4.76
2022-12-23T02:40:35.961Z,4.76
2022-12-23T02:41:35.989Z,4.79
2022-12-23T02:42:36.047Z,4.8
2022-12-23T02:43:36.046Z,4.79
2022-12-23T02:44:36.088Z,4.78
2022-12-23T02:45:36.127Z,4.78
2022-12-23T02:46:36.190Z,4.79
2022-12-23T02:47:36.181Z,4.8
2022-12-23T02:48:36.218Z,4.81
2022-12-23T02:49:36.260Z,4.81
2022-12-23T02:50:36.291Z,4.81
2022-12-23T02:51:36.320Z,4.81
2022-12-23T02:52:36.355Z,4.82
2022-12-23T02:53:36.394Z,4.82
2022-12-23T02:54:36.432Z,4.82
2022-12-23T02:55:36.478Z,4.82
2022-12-23T02:56:36.513Z,4.84
2022-12-23T02:57:36.528Z,4.84
2022-12-23T02:58:36.565Z,4.84
2022-12-23T02:59:36.607Z,4.84
2022-12-23T03:00:36.648Z,4.84
2022-12-23T03:01:36.830Z,4.82
2022-12-23T03:02:36.854Z,4.81
2022-12-23T03:03:36.875Z,4.87
2022-12-23T03:04:36.793Z,4.87
2022-12-23T03:05:36.799Z,4.87
2022-12-23T03:06:36.873Z,4.88
2022-12-23T03:07:36.876Z,4.88
2022-12-23T03:08:36.912Z,4.87
2022-12-23T03:09:36.944Z,4.86
2022-12-23T03:10:36.972Z,4.86
2022-12-23T03:11:37.054Z,4.86
2022-12-23T03:12:37.053Z,4.86
2022-12-23T03:13:37.086Z,4.87
2022-12-23T03:14:37.114Z,4.87
2022-12-23T03:15:37.204Z,4.87
2022-12-23T03:16:37.186Z,4.87
2022-12-23T03:17:37.231Z,4.9
2022-12-23T03:18:37.256Z,4.9
2022-12-23T03:19:37.285Z,4.91
2022-12-23T03:20:37.310Z,4.91
2022-12-23T03:21:37.343Z,4.9
2022-12-23T03:22:37.376Z,4.89
2022-12-23T03:23:37.431Z,4.88
2022-12-23T03:24:37.468Z,4.87
2022-12-23T03:25:37.492Z,4.87
2022-12-23T03:26:37.527Z,4.87
2022-12-23T03:27:37.564Z,4.86
2022-12-23T03:28:37.586Z,4.86
2022-12-23T03:29:37.634Z,4.9
2022-12-23T03:30:37.671Z,4.92
2022-12-23T03:31:37.760Z,4.91
2022-12-23T03:32:37.734Z,4.9
2022-12-23T03:33:37.762Z,4.9
2022-12-23T03:34:37.806Z,4.9
2022-12-23T03:35:37.836Z,4.9
2022-12-23T03:36:37.863Z,4.9
2022-12-23T03:37:37.925Z,4.9
2022-12-23T03:38:37.938Z,4.92
2022-12-23T03:39:37.955Z,4.92
2022-12-23T03:40:38.005Z,4.92
2022-12-23T03:41:38.452Z,4.92
2022-12-23T03:42:38.497Z,4.88
2022-12-23T03:43:38.533Z,4.89
2022-12-23T03:44:38.556Z,4.94
2022-12-23T03:45:40.663Z,4.95
2022-12-23T03:46:38.778Z,4.95
2022-12-23T03:47:38.661Z,4.95
2022-12-23T03:48:38.704Z,5.01
2022-12-23T03:49:38.727Z,5.03
2022-12-23T03:50:38.763Z,5.03
2022-12-23T03:51:38.814Z,5.04
2022-12-23T03:52:38.831Z,5.04
2022-12-23T03:53:38.861Z,5.02
2022-12-23T03:54:38.890Z,5.04
2022-12-23T03:55:38.934Z,5.05
2022-12-23T03:56:38.971Z,5.05
2022-12-23T03:57:39.007Z,5.05
2022-12-23T03:58:39.062Z,5.05
2022-12-23T03:59:39.066Z,5.04
2022-12-23T04:00:39.095Z,5.04
2022-12-23T04:01:39.350Z,5.04
2022-12-23T04:02:39.315Z,5.03
2022-12-23T04:03:39.281Z,5.01
2022-12-23T04:04:39.228Z,5
2022-12-23T04:05:39.260Z,5.01
2022-12-23T04:06:39.325Z,5.05
2022-12-23T04:07:39.322Z,5.05
2022-12-23T04:08:39.348Z,5.05
2022-12-23T04:09:39.387Z,5.05
2022-12-23T04:10:39.426Z,5.05
2022-12-23T04:11:39.475Z,5.04
2022-12-23T04:12:39.491Z,5.04
2022-12-23T04:13:39.549Z,5.05
2022-12-23T04:14:39.559Z,5.08
2022-12-23T04:15:39.640Z,5.07
2022-12-23T04:16:39.658Z,5.07
2022-12-23T04:17:39.691Z,5.09
2022-12-23T04:18:39.723Z,5.06
2022-12-23T04:19:39.738Z,5.09
2022-12-23T04:20:39.771Z,5.09
2022-12-23T04:21:39.805Z,5.08
2022-12-23T04:22:39.836Z,5.07
2022-12-23T04:23:39.886Z,5.06
2022-12-23T04:24:40.075Z,5.09
2022-12-23T04:25:40.121Z,5.09
2022-12-23T04:26:40.138Z,5.09
2022-12-23T04:27:40.179Z,5.11
2022-12-23T04:28:40.200Z,5.08
2022-12-23T04:29:40.237Z,5.1
2022-12-23T04:30:40.299Z,5.1
2022-12-23T04:31:40.390Z,5.09
2022-12-23T04:32:40.369Z,5.12
2022-12-23T04:33:40.404Z,5.11
2022-12-23T04:34:40.437Z,5.12
2022-12-23T04:35:40.469Z,5.13
2022-12-23T04:36:40.493Z,5.13
2022-12-23T04:37:40.519Z,5.14
2022-12-23T04:38:40.565Z,5.13
2022-12-23T04:39:40.604Z,5.13
2022-12-23T04:40:40.640Z,5.13
2022-12-23T04:41:40.684Z,5.14
2022-12-23T04:42:40.690Z,5.14
2022-12-23T04:43:40.720Z,5.14
2022-12-23T04:44:40.765Z,5.15
2022-12-23T04:45:40.791Z,5.14
2022-12-23T04:46:40.943Z,5.15
2022-12-23T04:47:40.876Z,5.15
2022-12-23T04:48:40.905Z,5.16
2022-12-23T04:49:40.935Z,5.16
2022-12-23T04:50:40.989Z,5.16
2022-12-23T04:51:40.993Z,5.16
2022-12-23T04:52:41.027Z,5.16
2022-12-23T04:53:41.066Z,5.15
2022-12-23T04:54:45.968Z,5.16
2022-12-23T04:55:41.125Z,5.15
2022-12-23T04:56:41.185Z,5.14
2022-12-23T04:57:41.203Z,5.15
2022-12-23T04:58:41.226Z,5.17
2022-12-23T04:59:41.297Z,5.19
2022-12-23T05:00:41.327Z,5.22
2022-12-23T05:01:41.482Z,5.22
2022-12-23T05:02:41.481Z,5.21
2022-12-23T05:03:41.412Z,5.21
2022-12-23T05:04:41.536Z,5.22
2022-12-23T05:05:41.475Z,5.21
2022-12-23T05:06:41.515Z,5.18
2022-12-23T05:07:41.543Z,5.18
2022-12-23T05:08:41.580Z,5.17
2022-12-23T05:09:41.616Z,5.16
2022-12-23T05:10:41.641Z,5.16
2022-12-23T05:11:42.313Z,5.21
2022-12-23T05:12:41.709Z,5.2
2022-12-23T05:13:41.742Z,5.2
2022-12-23T05:14:41.776Z,5.21
2022-12-23T05:15:41.804Z,5.21
2022-12-23T05:16:41.879Z,5.21
2022-12-23T05:17:41.878Z,5.21
2022-12-23T05:18:41.910Z,5.21
2022-12-23T05:19:41.963Z,5.21
2022-12-23T05:20:41.985Z,5.21
2022-12-23T05:21:42.026Z,5.2
2022-12-23T05:22:42.055Z,5.22
2022-12-23T05:23:42.095Z,5.22
2022-12-23T05:24:42.116Z,5.23
2022-12-23T05:25:42.138Z,5.24
2022-12-23T05:26:44.959Z,5.24
2022-12-23T05:27:42.219Z,5.24
2022-12-23T05:28:42.239Z,5.24
2022-12-23T05:29:42.277Z,5.23
2022-12-23T05:30:42.316Z,5.19
2022-12-23T05:31:42.456Z,5.23
2022-12-23T05:32:42.386Z,5.2
2022-12-23T05:33:42.531Z,5.22
2022-12-23T05:34:42.452Z,5.22
2022-12-23T05:35:42.499Z,5.2
2022-12-23T05:36:42.530Z,5.2
2022-12-23T05:37:42.553Z,5.2
2022-12-23T05:38:42.602Z,5.19
2022-12-23T05:39:42.623Z,5.19
2022-12-23T05:40:42.662Z,5.19
2022-12-23T05:41:42.723Z,5.19
2022-12-23T05:42:42.738Z,5.16
2022-12-23T05:43:42.776Z,5.16
2022-12-23T05:44:42.819Z,5.16
2022-12-23T05:45:42.927Z,5.17
2022-12-23T05:46:43.050Z,5.18
2022-12-23T05:47:42.923Z,5.17
2022-12-23T05:48:42.955Z,5.18
2022-12-23T05:49:42.989Z,5.18
2022-12-23T05:50:43.021Z,5.18
2022-12-23T05:51:43.060Z,5.17
2022-12-23T05:52:43.084Z,5.17
2022-12-23T05:53:43.117Z,5.15
2022-12-23T05:54:43.150Z,5.17
2022-12-23T05:55:43.200Z,5.12
2022-12-23T05:56:43.229Z,5.11
2022-12-23T05:57:43.262Z,5.15
2022-12-23T05:58:43.293Z,5.15
2022-12-23T05:59:43.324Z,5.12
2022-12-23T06:00:43.364Z,5.11
2022-12-23T06:01:43.546Z,5.13
2022-12-23T06:02:47.226Z,5.12
2022-12-23T06:03:43.625Z,5.19
2022-12-23T06:04:43.506Z,5.14
2022-12-23T06:05:43.615Z,5.16
2022-12-23T06:06:43.573Z,5.22
2022-12-23T06:07:43.604Z,5.21
2022-12-23T06:08:43.620Z,5.23
2022-12-23T06:09:43.655Z,5.23
2022-12-23T06:10:43.686Z,5.22
2022-12-23T06:11:43.720Z,5.22
2022-12-23T06:12:43.748Z,5.22
2022-12-23T06:13:43.785Z,5.17
2022-12-23T06:14:43.843Z,5.17
2022-12-23T06:15:43.858Z,5.16
2022-12-23T06:16:43.931Z,5.16
2022-12-23T06:17:43.923Z,5.17
2022-12-23T06:18:43.960Z,5.16
2022-12-23T06:19:43.994Z,5.15
2022-12-23T06:20:44.034Z,5.1
2022-12-23T06:21:44.065Z,5.1
2022-12-23T06:22:44.099Z,5.12
2022-12-23T06:23:44.134Z,5.11
2022-12-23T06:24:44.158Z,5.11
2022-12-23T06:25:44.197Z,5.11
2022-12-23T06:26:44.230Z,5.1
2022-12-23T06:27:44.251Z,5.1
2022-12-23T06:28:44.293Z,5.11
2022-12-23T06:29:44.322Z,5.11
2022-12-23T06:30:44.367Z,5.12
2022-12-23T06:31:44.471Z,5.15
2022-12-23T06:32:44.440Z,5.16
2022-12-23T06:33:44.456Z,5.16
2022-12-23T06:34:44.490Z,5.16
2022-12-23T06:35:44.550Z,5.15
2022-12-23T06:36:44.563Z,5.15
2022-12-23T06:37:44.603Z,5.13
2022-12-23T06:38:44.631Z,5.14
2022-12-23T06:39:44.675Z,5.14
2022-12-23T06:40:44.704Z,5.08
2022-12-23T06:41:44.735Z,5.08
2022-12-23T06:42:44.767Z,5.09
2022-12-23T06:43:46.246Z,5.09
2022-12-23T06:44:44.843Z,5.06
2022-12-23T06:45:44.950Z,5.1
2022-12-23T06:46:44.950Z,5.1
2022-12-23T06:47:44.968Z,5.06
2022-12-23T06:48:44.999Z,5.11
2022-12-23T06:49:45.029Z,5.12
2022-12-23T06:50:45.060Z,5.13
2022-12-23T06:51:45.093Z,5.14
2022-12-23T06:52:45.135Z,5.14
2022-12-23T06:53:45.163Z,5.1
2022-12-23T06:54:45.195Z,5.15
2022-12-23T06:55:45.245Z,5.19
2022-12-23T06:56:45.265Z,5.22
2022-12-23T06:57:45.298Z,5.18
2022-12-23T06:58:45.322Z,5.2
2022-12-23T06:59:45.361Z,5.2
2022-12-23T07:00:45.397Z,5.23
2022-12-23T07:01:45.518Z,5.23
2022-12-23T07:02:45.568Z,5.23
2022-12-23T07:03:45.545Z,5.22
2022-12-23T07:04:45.538Z,5.21
2022-12-23T07:05:45.573Z,5.21
2022-12-23T07:06:45.609Z,5.21
2022-12-23T07:07:45.636Z,5.21
2022-12-23T07:08:45.670Z,5.22
2022-12-23T07:09:45.712Z,5.22
2022-12-23T07:10:45.733Z,5.21
2022-12-23T07:11:45.772Z,5.21
2022-12-23T07:12:50.484Z,5.21
2022-12-23T07:13:45.835Z,5.2
2022-12-23T07:14:45.877Z,5.25
2022-12-23T07:15:45.907Z,5.24
2022-12-23T07:16:46.156Z,5.21
2022-12-23T07:17:45.963Z,5.21
2022-12-23T07:18:46.020Z,5.22
2022-12-23T07:19:46.031Z,5.22
2022-12-23T07:20:46.076Z,5.2
2022-12-23T07:21:46.104Z,5.21
2022-12-23T07:22:46.137Z,5.21
2022-12-23T07:23:46.167Z,5.21
2022-12-23T07:24:46.206Z,5.2
2022-12-23T07:25:46.255Z,5.2
2022-12-23T07:26:46.271Z,5.2
2022-12-23T07:27:46.297Z,5.16
2022-12-23T07:28:46.333Z,5.13
2022-12-23T07:29:46.366Z,5.1
2022-12-23T07:30:46.403Z,5.09
2022-12-23T07:31:46.442Z,5.1
2022-12-23T07:32:46.481Z,5.11
2022-12-23T07:33:46.506Z,5.12
2022-12-23T07:34:46.540Z,5.12
2022-12-23T07:35:46.581Z,5.12
2022-12-23T07:36:46.627Z,5.13
2022-12-23T07:37:46.656Z,5.13
2022-12-23T07:38:46.693Z,5.13
2022-12-23T07:39:46.730Z,5.13
2022-12-23T07:40:46.748Z,5.13
2022-12-23T07:41:46.782Z,5.14
2022-12-23T07:42:47.220Z,5.12
2022-12-23T07:43:46.850Z,5.1
2022-12-23T07:44:46.871Z,5.1
2022-12-23T07:45:47.003Z,5.12
2022-12-23T07:46:47.005Z,5.12
2022-12-23T07:47:46.976Z,5.17
2022-12-23T07:48:47.031Z,5.25
2022-12-23T07:49:47.035Z,5.24
2022-12-23T07:50:47.067Z,5.26
2022-12-23T07:51:47.287Z,5.26
2022-12-23T07:52:47.305Z,5.21
2022-12-23T07:53:47.352Z,5.22
2022-12-23T07:54:47.370Z,5.22
2022-12-23T07:55:51.547Z,5.22
2022-12-23T07:56:47.441Z,5.23
2022-12-23T07:57:47.512Z,5.24
2022-12-23T07:58:47.521Z,5.25
2022-12-23T07:59:47.553Z,5.25
2022-12-23T08:00:47.595Z,5.24
2022-12-23T08:01:47.732Z,5.24
2022-12-23T08:02:47.814Z,5.23
2022-12-23T08:03:47.775Z,5.25
2022-12-23T08:04:47.818Z,5.24
2022-12-23T08:05:47.745Z,5.23
2022-12-23T08:06:47.778Z,5.24
2022-12-23T08:07:47.843Z,5.23
2022-12-23T08:08:47.865Z,5.24
2022-12-23T08:09:47.893Z,5.28
2022-12-23T08:10:48.454Z,5.35
2022-12-23T08:11:47.966Z,5.36
2022-12-23T08:12:47.996Z,5.37
2022-12-23T08:13:48.029Z,5.39
2022-12-23T08:14:48.054Z,5.39
2022-12-23T08:15:48.091Z,5.4
2022-12-23T08:16:48.319Z,5.4
2022-12-23T08:17:48.161Z,5.44
2022-12-23T08:18:48.202Z,5.47
2022-12-23T08:19:48.227Z,5.49
2022-12-23T08:20:48.264Z,5.51
2022-12-23T08:21:48.298Z,5.55
2022-12-23T08:22:48.341Z,5.55
2022-12-23T08:23:48.363Z,5.55
2022-12-23T08:24:48.406Z,5.58
2022-12-23T08:25:48.436Z,5.57
2022-12-23T08:26:48.489Z,5.57
2022-12-23T08:27:48.505Z,5.57
2022-12-23T08:28:48.564Z,5.57
2022-12-23T08:29:48.577Z,5.63
2022-12-23T08:30:48.701Z,5.61
2022-12-23T08:31:48.657Z,5.62
2022-12-23T08:32:48.694Z,5.63
2022-12-23T08:33:48.721Z,5.64
2022-12-23T08:34:48.753Z,5.7
2022-12-23T08:35:48.789Z,5.7
2022-12-23T08:36:48.812Z,5.7
2022-12-23T08:37:48.851Z,5.7
2022-12-23T08:38:48.882Z,5.7
2022-12-23T08:39:48.924Z,5.71
2022-12-23T08:40:48.950Z,5.73
2022-12-23T08:41:48.977Z,5.71
2022-12-23T08:42:49.014Z,5.7
2022-12-23T08:43:49.054Z,5.72
2022-12-23T08:44:49.082Z,5.74
2022-12-23T08:45:49.151Z,5.78
2022-12-23T08:46:49.207Z,5.78
2022-12-23T08:47:49.169Z,5.78
2022-12-23T08:48:49.913Z,5.77
2022-12-23T08:49:49.239Z,5.78
2022-12-23T08:50:49.271Z,5.83
2022-12-23T08:51:49.328Z,5.83
2022-12-23T08:52:49.360Z,5.84
2022-12-23T08:53:50.209Z,5.83
2022-12-23T08:54:49.409Z,5.85
2022-12-23T08:55:49.450Z,5.85
2022-12-23T08:56:49.488Z,5.85
2022-12-23T08:57:49.514Z,5.86
2022-12-23T08:58:49.567Z,5.86
2022-12-23T08:59:49.576Z,5.85
2022-12-23T09:00:49.642Z,5.86
2022-12-23T09:01:49.808Z,5.85
2022-12-23T09:02:49.774Z,5.86
2022-12-23T09:03:49.792Z,5.87
2022-12-23T09:04:49.746Z,5.92
2022-12-23T09:05:49.773Z,5.92
2022-12-23T09:06:49.811Z,5.93
2022-12-23T09:07:49.842Z,5.94
2022-12-23T09:08:49.904Z,5.94
2022-12-23T09:09:49.902Z,5.96
2022-12-23T09:10:49.928Z,5.97
2022-12-23T09:11:49.958Z,5.97
2022-12-23T09:12:49.988Z,5.97
2022-12-23T09:13:50.034Z,6.02
2022-12-23T09:14:50.043Z,6.02
2022-12-23T09:15:50.132Z,6.05
2022-12-23T09:16:50.138Z,6.05
2022-12-23T09:17:50.151Z,6.09
2022-12-23T09:18:50.193Z,6.09
2022-12-23T09:19:52.967Z,6.09
2022-12-23T09:20:50.252Z,6.1
2022-12-23T09:21:50.310Z,6.09
2022-12-23T09:22:50.328Z,6.08
2022-12-23T09:23:50.365Z,6.08
2022-12-23T09:24:50.748Z,6.07
2022-12-23T09:25:50.744Z,6.07
2022-12-23T09:26:50.773Z,6.09
2022-12-23T09:27:50.815Z,6.12
2022-12-23T09:28:50.840Z,6.13
2022-12-23T09:29:50.889Z,6.13
2022-12-23T09:30:50.980Z,6.13
2022-12-23T09:31:50.998Z,6.12
2022-12-23T09:32:50.979Z,6.14
2022-12-23T09:33:51.029Z,6.12
2022-12-23T09:34:51.038Z,6.14
2022-12-23T09:35:51.069Z,6.11
2022-12-23T09:36:55.261Z,6.11
2022-12-23T09:37:51.128Z,6.12
2022-12-23T09:38:51.157Z,6.1
2022-12-23T09:39:51.221Z,6.09
2022-12-23T09:40:51.226Z,6.15
2022-12-23T09:41:51.283Z,6.15
2022-12-23T09:42:51.289Z,6.16
2022-12-23T09:43:51.327Z,6.16
2022-12-23T09:44:51.375Z,6.14
2022-12-23T09:45:51.397Z,6.15
2022-12-23T09:46:51.517Z,6.16
2022-12-23T09:47:51.521Z,6.16
2022-12-23T09:48:51.494Z,6.17
2022-12-23T09:49:51.534Z,6.17
2022-12-23T09:50:51.574Z,6.15
2022-12-23T09:51:51.594Z,6.16
2022-12-23T09:52:51.662Z,6.16
2022-12-23T09:53:51.655Z,6.16
2022-12-23T09:54:51.681Z,6.19
2022-12-23T09:55:51.717Z,6.18
2022-12-23T09:56:51.758Z,6.18
2022-12-23T09:57:51.786Z,6.18
2022-12-23T09:58:51.812Z,6.18
2022-12-23T09:59:51.853Z,6.17
2022-12-23T10:00:51.891Z,6.17
2022-12-23T10:01:52.090Z,6.17
2022-12-23T10:02:52.222Z,6.17
2022-12-23T10:03:52.265Z,6.17
2022-12-23T10:04:52.022Z,6.17
2022-12-23T10:05:52.043Z,6.19
2022-12-23T10:06:55.070Z,6.19
2022-12-23T10:07:52.116Z,6.22
2022-12-23T10:08:52.180Z,6.24
2022-12-23T10:09:52.180Z,6.25
2022-12-23T10:10:52.263Z,6.27
2022-12-23T10:11:52.253Z,6.28
2022-12-23T10:12:52.294Z,6.28
2022-12-23T10:13:52.337Z,6.28
2022-12-23T10:14:52.367Z,6.33
2022-12-23T10:15:52.467Z,6.33
2022-12-23T10:16:52.438Z,6.35
2022-12-23T10:17:52.467Z,6.37
2022-12-23T10:18:52.501Z,6.38
2022-12-23T10:19:52.533Z,6.4
2022-12-23T10:20:52.573Z,6.39
2022-12-23T10:21:52.604Z,6.39
2022-12-23T10:22:52.664Z,6.43
2022-12-23T10:23:52.671Z,6.46
2022-12-23T10:24:52.703Z,6.5
2022-12-23T10:25:52.732Z,6.5
2022-12-23T10:26:52.777Z,6.5
2022-12-23T10:27:52.815Z,6.51
2022-12-23T10:28:52.830Z,6.49
2022-12-23T10:29:52.899Z,6.48
2022-12-23T10:31:17.316Z,6.48
2022-12-23T10:31:53.025Z,6.48
2022-12-23T10:32:53.102Z,6.52
2022-12-23T10:33:52.997Z,6.52
2022-12-23T10:34:53.040Z,6.54
2022-12-23T10:35:53.127Z,6.56
2022-12-23T10:36:53.154Z,6.56
2022-12-23T10:37:53.165Z,6.55
2022-12-23T10:38:53.177Z,6.55
2022-12-23T10:39:53.232Z,6.54
2022-12-23T10:40:53.237Z,6.55
2022-12-23T10:41:53.279Z,6.55
2022-12-23T10:42:53.340Z,6.55
2022-12-23T10:43:53.347Z,6.57
2022-12-23T10:44:53.385Z,6.6
2022-12-23T10:45:53.432Z,6.64
2022-12-23T10:46:53.603Z,6.67
2022-12-23T10:47:53.501Z,6.64
2022-12-23T10:48:53.534Z,6.64
2022-12-23T10:49:53.594Z,6.66
2022-12-23T10:50:53.621Z,6.68
2022-12-23T10:51:53.678Z,6.66
2022-12-23T10:52:53.672Z,6.64
2022-12-23T10:53:53.706Z,6.66
2022-12-23T10:54:53.764Z,6.71
2022-12-23T10:55:53.783Z,6.76
2022-12-23T10:56:53.808Z,6.75
2022-12-23T10:57:53.848Z,6.75
2022-12-23T10:58:53.881Z,6.74
2022-12-23T10:59:53.910Z,6.74
2022-12-23T11:00:54.056Z,6.74
2022-12-23T11:01:54.209Z,6.68
2022-12-23T11:02:54.149Z,6.68
2022-12-23T11:03:54.197Z,6.66
2022-12-23T11:04:54.082Z,6.65
2022-12-23T11:05:54.139Z,6.65
2022-12-23T11:07:18.253Z,6.65
2022-12-23T11:07:54.190Z,6.65
2022-12-23T11:08:54.242Z,6.64
2022-12-23T11:09:54.254Z,6.63
2022-12-23T11:10:54.282Z,6.63
2022-12-23T11:11:54.309Z,6.63
2022-12-23T11:12:54.330Z,6.59
2022-12-23T11:13:54.398Z,6.59
2022-12-23T11:14:54.410Z,6.58
2022-12-23T11:15:54.493Z,6.58
2022-12-23T11:16:54.535Z,6.56
2022-12-23T11:17:54.501Z,6.58
2022-12-23T11:18:54.532Z,6.56
2022-12-23T11:19:54.561Z,6.56
2022-12-23T11:20:54.598Z,6.56
2022-12-23T11:21:54.636Z,6.56
2022-12-23T11:22:54.668Z,6.56
2022-12-23T11:23:54.732Z,6.56
2022-12-23T11:24:54.730Z,6.55
2022-12-23T11:25:54.766Z,6.55
2022-12-23T11:26:54.807Z,6.57
2022-12-23T11:27:54.838Z,6.51
2022-12-23T11:28:54.911Z,6.52
2022-12-23T11:29:54.944Z,6.52
2022-12-23T11:30:56.646Z,6.47
2022-12-23T11:31:55.056Z,6.49
2022-12-23T11:32:55.035Z,6.51
2022-12-23T11:33:55.070Z,6.47
2022-12-23T11:34:55.161Z,6.48
2022-12-23T11:35:55.168Z,6.48
2022-12-23T11:36:57.537Z,6.47
2022-12-23T11:37:55.209Z,6.5
2022-12-23T11:38:55.227Z,6.47
2022-12-23T11:39:55.265Z,6.47
2022-12-23T11:40:55.314Z,6.49
2022-12-23T11:41:55.328Z,6.47
2022-12-23T11:42:55.516Z,6.48
2022-12-23T11:43:55.408Z,6.5
2022-12-23T11:44:55.448Z,6.49
2022-12-23T11:45:55.562Z,6.47
2022-12-23T11:46:55.524Z,6.49
2022-12-23T11:47:55.551Z,6.49
2022-12-23T11:48:55.827Z,6.49
2022-12-23T11:49:55.629Z,6.49
2022-12-23T11:50:55.641Z,6.49
2022-12-23T11:51:55.689Z,6.49
2022-12-23T11:52:55.712Z,6.49
2022-12-23T11:53:55.746Z,6.49
2022-12-23T11:54:55.832Z,6.5
2022-12-23T11:55:55.817Z,6.47
2022-12-23T11:56:55.925Z,6.47
2022-12-23T11:57:55.885Z,6.51
2022-12-23T11:58:55.910Z,6.51
2022-12-23T11:59:55.939Z,6.47
2022-12-23T12:00:56.442Z,6.48
2022-12-23T12:01:56.045Z,6.48
2022-12-23T12:02:56.123Z,6.48
2022-12-23T12:03:56.217Z,6.48
2022-12-23T12:04:56.119Z,6.48
2022-12-23T12:05:56.144Z,6.48
2022-12-23T12:06:56.767Z,6.48
2022-12-23T12:07:56.203Z,6.48
2022-12-23T12:08:56.243Z,6.49
2022-12-23T12:09:56.273Z,6.48
2022-12-23T12:10:56.295Z,6.51
2022-12-23T12:11:56.331Z,6.5
2022-12-23T12:12:56.396Z,6.51
2022-12-23T12:13:56.417Z,6.51
2022-12-23T12:14:56.451Z,6.51
2022-12-23T12:15:56.469Z,6.5
2022-12-23T12:16:56.580Z,6.49
2022-12-23T12:17:56.579Z,6.54
2022-12-23T12:18:56.595Z,6.57
2022-12-23T12:19:56.615Z,6.57
2022-12-23T12:20:56.657Z,6.56
2022-12-23T12:21:56.675Z,6.56
2022-12-23T12:22:56.716Z,6.58
2022-12-23T12:24:17.258Z,6.58
2022-12-23T12:24:57.007Z,6.53
2022-12-23T12:25:56.799Z,6.53
2022-12-23T12:26:56.832Z,6.53
2022-12-23T12:27:56.876Z,6.55
2022-12-23T12:28:56.904Z,6.57
2022-12-23T12:29:56.942Z,6.58
2022-12-23T12:30:56.995Z,6.57
2022-12-23T12:31:57.012Z,6.58
2022-12-23T12:32:57.032Z,6.66
2022-12-23T12:33:57.056Z,6.68
2022-12-23T12:34:57.093Z,6.69
2022-12-23T12:36:03.359Z,6.69
2022-12-23T12:36:57.202Z,6.68
2022-12-23T12:37:57.190Z,6.67
2022-12-23T12:38:57.234Z,6.66
2022-12-23T12:39:57.277Z,6.71
2022-12-23T12:40:57.293Z,6.72
2022-12-23T12:42:03.488Z,6.72
2022-12-23T12:42:57.357Z,6.72
2022-12-23T12:43:57.381Z,6.77
2022-12-23T12:44:57.431Z,6.76
2022-12-23T12:45:57.513Z,6.75
2022-12-23T12:46:57.482Z,6.75
2022-12-23T12:48:04.458Z,6.75
2022-12-23T12:48:57.543Z,6.74
2022-12-23T12:49:57.581Z,6.73
2022-12-23T12:50:57.614Z,6.72
2022-12-23T12:51:57.692Z,6.72
2022-12-23T12:52:57.688Z,6.72
2022-12-23T12:54:04.416Z,6.72
2022-12-23T12:54:57.764Z,6.73
2022-12-23T12:55:57.787Z,6.72
2022-12-23T12:56:57.861Z,6.72
2022-12-23T12:57:57.860Z,6.71
2022-12-23T12:58:57.882Z,6.68
2022-12-23T13:00:05.297Z,6.69
2022-12-23T13:00:58.083Z,6.68
2022-12-23T13:01:58.099Z,6.68
2022-12-23T13:02:58.140Z,6.68
2022-12-23T13:03:58.061Z,6.67
2022-12-23T13:04:58.093Z,6.66
2022-12-23T13:05:58.159Z,6.66
2022-12-23T13:06:58.165Z,6.66
2022-12-23T13:07:58.207Z,6.67
2022-12-23T13:08:58.223Z,6.65
2022-12-23T13:09:58.295Z,6.65
2022-12-23T13:10:58.285Z,6.61
2022-12-23T13:11:58.311Z,6.58
2022-12-23T13:12:58.345Z,6.55
2022-12-23T13:13:58.382Z,6.56
2022-12-23T13:14:58.430Z,6.55
2022-12-23T13:15:58.438Z,6.56
2022-12-23T13:16:58.573Z,6.57
2022-12-23T13:18:01.966Z,6.57
2022-12-23T13:18:58.553Z,6.56
2022-12-23T13:19:58.574Z,6.53
2022-12-23T13:20:58.616Z,6.43
2022-12-23T13:21:58.651Z,6.42